sensor_id;sensor_type;location;lat;lon;timestamp;P1;durP1;ratioP1;P2;durP2;ratioP2
47760;SDS011;33524;55.434;38.520;2023-03-04T00:01:57;6.32;;;2.47;;
47760;SDS011;33524;55.434;38.520;2023-03-04T00:04:27;9.98;;;5.00;;
47760;SDS011;33524;55.434;38.520;2023-03-04T00:06:58;7.43;;;4.37;;
47760;SDS011;33524;55.434;38.520;2023-03-04T00:09:28;7.60;;;4.03;;
47760;SDS011;33524;55.434;38.520;2023-03-04T00:11:57;5.72;;;3.03;;
47760;SDS011;33524;55.434;38.520;2023-03-04T00:14:27;9.07;;;3.87;;
47760;SDS011;33524;55.434;38.520;2023-03-04T00:16:57;7.45;;;4.00;;
47760;SDS011;33524;55.434;38.520;2023-03-04T00:19:26;7.03;;;3.78;;
47760;SDS011;33524;55.434;38.520;2023-03-04T00:21:56;6.90;;;3.72;;
47760;SDS011;33524;55.434;38.520;2023-03-04T00:24:27;9.48;;;4.22;;
47760;SDS011;33524;55.434;38.520;2023-03-04T00:26:57;4.68;;;2.12;;
47760;SDS011;33524;55.434;38.520;2023-03-04T00:29:27;7.05;;;2.80;;
47760;SDS011;33524;55.434;38.520;2023-03-04T00:31:57;9.88;;;5.65;;
47760;SDS011;33524;55.434;38.520;2023-03-04T00:34:26;6.37;;;3.28;;
47760;SDS011;33524;55.434;38.520;2023-03-04T00:39:31;7.82;;;4.68;;
47760;SDS011;33524;55.434;38.520;2023-03-04T00:42:00;5.80;;;3.42;;
47760;SDS011;33524;55.434;38.520;2023-03-04T00:44:29;6.65;;;3.62;;
47760;SDS011;33524;55.434;38.520;2023-03-04T00:46:59;5.80;;;3.25;;
47760;SDS011;33524;55.434;38.520;2023-03-04T00:49:29;7.32;;;3.40;;
47760;SDS011;33524;55.434;38.520;2023-03-04T00:51:58;6.30;;;3.15;;
47760;SDS011;33524;55.434;38.520;2023-03-04T00:54:27;8.38;;;3.70;;
47760;SDS011;33524;55.434;38.520;2023-03-04T00:56:59;6.82;;;3.42;;
47760;SDS011;33524;55.434;38.520;2023-03-04T00:59:29;6.90;;;3.00;;
47760;SDS011;33524;55.434;38.520;2023-03-04T01:01:59;4.90;;;3.20;;
47760;SDS011;33524;55.434;38.520;2023-03-04T01:04:29;8.13;;;4.12;;
47760;SDS011;33524;55.434;38.520;2023-03-04T01:06:58;4.65;;;3.60;;
47760;SDS011;33524;55.434;38.520;2023-03-04T01:09:29;5.87;;;3.30;;
47760;SDS011;33524;55.434;38.520;2023-03-04T01:11:59;7.20;;;4.45;;
47760;SDS011;33524;55.434;38.520;2023-03-04T01:14:28;8.05;;;3.87;;
47760;SDS011;33524;55.434;38.520;2023-03-04T01:16:58;8.95;;;3.92;;
47760;SDS011;33524;55.434;38.520;2023-03-04T01:19:28;8.70;;;4.22;;
47760;SDS011;33524;55.434;38.520;2023-03-04T01:21:58;7.82;;;4.35;;
47760;SDS011;33524;55.434;38.520;2023-03-04T01:24:28;7.18;;;4.32;;
47760;SDS011;33524;55.434;38.520;2023-03-04T01:26:59;7.90;;;4.37;;
47760;SDS011;33524;55.434;38.520;2023-03-04T01:29:28;8.88;;;5.05;;
47760;SDS011;33524;55.434;38.520;2023-03-04T01:31:57;10.07;;;5.30;;
47760;SDS011;33524;55.434;38.520;2023-03-04T01:34:29;8.23;;;5.65;;
47760;SDS011;33524;55.434;38.520;2023-03-04T01:36:59;8.65;;;4.95;;
47760;SDS011;33524;55.434;38.520;2023-03-04T01:39:28;10.73;;;6.05;;
47760;SDS011;33524;55.434;38.520;2023-03-04T01:41:58;11.77;;;5.60;;
47760;SDS011;33524;55.434;38.520;2023-03-04T01:44:27;14.93;;;6.60;;
47760;SDS011;33524;55.434;38.520;2023-03-04T01:46:57;8.82;;;5.37;;
47760;SDS011;33524;55.434;38.520;2023-03-04T01:49:29;12.85;;;7.07;;
47760;SDS011;33524;55.434;38.520;2023-03-04T01:51:59;9.25;;;5.47;;
47760;SDS011;33524;55.434;38.520;2023-03-04T01:54:29;11.43;;;6.32;;
47760;SDS011;33524;55.434;38.520;2023-03-04T01:56:59;9.98;;;5.12;;
47760;SDS011;33524;55.434;38.520;2023-03-04T01:59:29;11.55;;;5.75;;
47760;SDS011;33524;55.434;38.520;2023-03-04T02:02:01;7.78;;;5.28;;
47760;SDS011;33524;55.434;38.520;2023-03-04T02:04:31;10.68;;;5.12;;
47760;SDS011;33524;55.434;38.520;2023-03-04T02:07:02;10.95;;;5.97;;
47760;SDS011;33524;55.434;38.520;2023-03-04T02:09:33;9.90;;;6.05;;
47760;SDS011;33524;55.434;38.520;2023-03-04T02:12:18;12.68;;;5.87;;
47760;SDS011;33524;55.434;38.520;2023-03-04T02:14:48;13.40;;;6.18;;
47760;SDS011;33524;55.434;38.520;2023-03-04T02:17:38;8.52;;;5.53;;
47760;SDS011;33524;55.434;38.520;2023-03-04T02:20:15;9.45;;;5.68;;
47760;SDS011;33524;55.434;38.520;2023-03-04T02:23:25;9.32;;;5.35;;
47760;SDS011;33524;55.434;38.520;2023-03-04T02:28:48;9.52;;;5.32;;
47760;SDS011;33524;55.434;38.520;2023-03-04T02:31:21;9.13;;;5.73;;
47760;SDS011;33524;55.434;38.520;2023-03-04T02:33:56;12.80;;;6.72;;
47760;SDS011;33524;55.434;38.520;2023-03-04T02:39:00;11.18;;;5.20;;
47760;SDS011;33524;55.434;38.520;2023-03-04T02:41:35;11.45;;;6.80;;
47760;SDS011;33524;55.434;38.520;2023-03-04T02:44:11;12.75;;;6.40;;
47760;SDS011;33524;55.434;38.520;2023-03-04T02:46:46;15.23;;;8.30;;
47760;SDS011;33524;55.434;38.520;2023-03-04T02:49:17;12.10;;;7.87;;
47760;SDS011;33524;55.434;38.520;2023-03-04T02:51:50;13.07;;;7.57;;
47760;SDS011;33524;55.434;38.520;2023-03-04T02:54:22;13.30;;;6.93;;
47760;SDS011;33524;55.434;38.520;2023-03-04T02:56:53;12.70;;;7.32;;
47760;SDS011;33524;55.434;38.520;2023-03-04T02:59:25;10.57;;;6.35;;
47760;SDS011;33524;55.434;38.520;2023-03-04T03:01:55;12.73;;;7.75;;
47760;SDS011;33524;55.434;38.520;2023-03-04T03:04:25;15.45;;;7.22;;
47760;SDS011;33524;55.434;38.520;2023-03-04T03:06:56;16.92;;;9.63;;
47760;SDS011;33524;55.434;38.520;2023-03-04T03:09:27;13.82;;;8.93;;
47760;SDS011;33524;55.434;38.520;2023-03-04T03:11:57;17.35;;;8.18;;
47760;SDS011;33524;55.434;38.520;2023-03-04T03:14:28;14.90;;;8.30;;
47760;SDS011;33524;55.434;38.520;2023-03-04T03:16:59;16.85;;;8.25;;
47760;SDS011;33524;55.434;38.520;2023-03-04T03:19:28;17.17;;;7.85;;
47760;SDS011;33524;55.434;38.520;2023-03-04T03:21:59;17.42;;;7.68;;
47760;SDS011;33524;55.434;38.520;2023-03-04T03:24:29;10.68;;;6.62;;
47760;SDS011;33524;55.434;38.520;2023-03-04T03:26:59;13.50;;;6.53;;
47760;SDS011;33524;55.434;38.520;2023-03-04T03:29:29;13.80;;;8.02;;
47760;SDS011;33524;55.434;38.520;2023-03-04T03:31:59;12.13;;;7.32;;
47760;SDS011;33524;55.434;38.520;2023-03-04T03:34:29;11.70;;;7.00;;
47760;SDS011;33524;55.434;38.520;2023-03-04T03:36:58;10.75;;;6.53;;
47760;SDS011;33524;55.434;38.520;2023-03-04T03:39:28;13.70;;;7.32;;
47760;SDS011;33524;55.434;38.520;2023-03-04T03:41:58;11.23;;;6.07;;
47760;SDS011;33524;55.434;38.520;2023-03-04T03:44:27;17.00;;;8.38;;
47760;SDS011;33524;55.434;38.520;2023-03-04T03:46:57;13.75;;;7.20;;
47760;SDS011;33524;55.434;38.520;2023-03-04T03:49:27;17.77;;;8.45;;
47760;SDS011;33524;55.434;38.520;2023-03-04T03:51:56;15.82;;;8.57;;
47760;SDS011;33524;55.434;38.520;2023-03-04T03:54:26;16.67;;;8.13;;
47760;SDS011;33524;55.434;38.520;2023-03-04T03:56:55;17.98;;;9.52;;
47760;SDS011;33524;55.434;38.520;2023-03-04T03:59:26;20.05;;;8.45;;
47760;SDS011;33524;55.434;38.520;2023-03-04T04:01:55;12.07;;;7.45;;
47760;SDS011;33524;55.434;38.520;2023-03-04T04:04:25;15.70;;;8.02;;
47760;SDS011;33524;55.434;38.520;2023-03-04T04:06:55;11.93;;;6.40;;
47760;SDS011;33524;55.434;38.520;2023-03-04T04:09:24;14.45;;;6.68;;
47760;SDS011;33524;55.434;38.520;2023-03-04T04:11:55;12.05;;;6.05;;
47760;SDS011;33524;55.434;38.520;2023-03-04T04:14:24;12.80;;;5.75;;
47760;SDS011;33524;55.434;38.520;2023-03-04T04:16:54;11.30;;;6.25;;
47760;SDS011;33524;55.434;38.520;2023-03-04T04:19:23;9.63;;;5.82;;
47760;SDS011;33524;55.434;38.520;2023-03-04T04:21:53;9.68;;;5.22;;
47760;SDS011;33524;55.434;38.520;2023-03-04T04:24:23;12.98;;;4.93;;
47760;SDS011;33524;55.434;38.520;2023-03-04T04:26:52;10.88;;;5.87;;
47760;SDS011;33524;55.434;38.520;2023-03-04T04:29:22;11.88;;;6.75;;
47760;SDS011;33524;55.434;38.520;2023-03-04T04:31:52;12.60;;;5.22;;
47760;SDS011;33524;55.434;38.520;2023-03-04T04:34:22;11.68;;;5.78;;
47760;SDS011;33524;55.434;38.520;2023-03-04T04:36:52;16.98;;;6.12;;
47760;SDS011;33524;55.434;38.520;2023-03-04T04:39:23;11.32;;;5.45;;
47760;SDS011;33524;55.434;38.520;2023-03-04T04:42:01;11.95;;;6.03;;
47760;SDS011;33524;55.434;38.520;2023-03-04T04:44:32;12.27;;;6.07;;
47760;SDS011;33524;55.434;38.520;2023-03-04T04:47:06;13.85;;;6.95;;
47760;SDS011;33524;55.434;38.520;2023-03-04T04:49:37;13.25;;;7.47;;
47760;SDS011;33524;55.434;38.520;2023-03-04T04:52:07;11.68;;;6.15;;
47760;SDS011;33524;55.434;38.520;2023-03-04T04:54:37;13.57;;;7.10;;
47760;SDS011;33524;55.434;38.520;2023-03-04T04:57:09;14.70;;;6.53;;
47760;SDS011;33524;55.434;38.520;2023-03-04T04:59:40;11.75;;;5.97;;
47760;SDS011;33524;55.434;38.520;2023-03-04T05:02:10;11.12;;;6.22;;
47760;SDS011;33524;55.434;38.520;2023-03-04T05:04:39;9.20;;;5.55;;
47760;SDS011;33524;55.434;38.520;2023-03-04T05:07:09;12.37;;;6.07;;
47760;SDS011;33524;55.434;38.520;2023-03-04T05:09:38;8.50;;;4.95;;
47760;SDS011;33524;55.434;38.520;2023-03-04T05:12:08;13.43;;;5.18;;
47760;SDS011;33524;55.434;38.520;2023-03-04T05:14:38;4.97;;;2.83;;
47760;SDS011;33524;55.434;38.520;2023-03-04T05:17:08;7.93;;;3.87;;
47760;SDS011;33524;55.434;38.520;2023-03-04T05:19:37;8.88;;;5.22;;
47760;SDS011;33524;55.434;38.520;2023-03-04T05:22:07;9.73;;;5.53;;
47760;SDS011;33524;55.434;38.520;2023-03-04T05:24:37;15.68;;;5.57;;
47760;SDS011;33524;55.434;38.520;2023-03-04T05:27:06;7.47;;;4.65;;
47760;SDS011;33524;55.434;38.520;2023-03-04T05:29:38;10.30;;;5.15;;
47760;SDS011;33524;55.434;38.520;2023-03-04T05:32:07;7.97;;;5.35;;
47760;SDS011;33524;55.434;38.520;2023-03-04T05:34:37;10.38;;;4.78;;
47760;SDS011;33524;55.434;38.520;2023-03-04T05:37:07;7.65;;;4.40;;
47760;SDS011;33524;55.434;38.520;2023-03-04T05:39:36;10.60;;;4.60;;
47760;SDS011;33524;55.434;38.520;2023-03-04T05:42:06;12.30;;;5.25;;
47760;SDS011;33524;55.434;38.520;2023-03-04T05:44:36;12.50;;;5.28;;
47760;SDS011;33524;55.434;38.520;2023-03-04T05:47:05;9.82;;;6.05;;
47760;SDS011;33524;55.434;38.520;2023-03-04T05:49:35;10.52;;;5.28;;
47760;SDS011;33524;55.434;38.520;2023-03-04T05:52:04;9.77;;;5.15;;
47760;SDS011;33524;55.434;38.520;2023-03-04T05:54:34;12.15;;;5.62;;
47760;SDS011;33524;55.434;38.520;2023-03-04T05:57:07;10.07;;;4.70;;
47760;SDS011;33524;55.434;38.520;2023-03-04T05:59:37;8.98;;;5.55;;
47760;SDS011;33524;55.434;38.520;2023-03-04T06:02:07;6.87;;;3.65;;
47760;SDS011;33524;55.434;38.520;2023-03-04T06:04:37;7.62;;;4.57;;
47760;SDS011;33524;55.434;38.520;2023-03-04T06:07:07;7.32;;;4.87;;
47760;SDS011;33524;55.434;38.520;2023-03-04T06:09:40;8.80;;;4.35;;
47760;SDS011;33524;55.434;38.520;2023-03-04T06:12:12;8.27;;;4.53;;
47760;SDS011;33524;55.434;38.520;2023-03-04T06:14:42;6.00;;;3.15;;
47760;SDS011;33524;55.434;38.520;2023-03-04T06:17:11;8.90;;;3.80;;
47760;SDS011;33524;55.434;38.520;2023-03-04T06:19:41;6.60;;;3.92;;
47760;SDS011;33524;55.434;38.520;2023-03-04T06:22:11;5.32;;;3.20;;
47760;SDS011;33524;55.434;38.520;2023-03-04T06:24:40;7.57;;;4.28;;
47760;SDS011;33524;55.434;38.520;2023-03-04T06:27:10;9.48;;;3.70;;
47760;SDS011;33524;55.434;38.520;2023-03-04T06:29:41;7.10;;;3.58;;
47760;SDS011;33524;55.434;38.520;2023-03-04T06:32:14;5.72;;;2.22;;
47760;SDS011;33524;55.434;38.520;2023-03-04T06:34:46;7.80;;;3.78;;
47760;SDS011;33524;55.434;38.520;2023-03-04T06:37:16;5.18;;;3.12;;
47760;SDS011;33524;55.434;38.520;2023-03-04T06:39:45;6.43;;;3.50;;
47760;SDS011;33524;55.434;38.520;2023-03-04T06:42:15;8.10;;;3.45;;
47760;SDS011;33524;55.434;38.520;2023-03-04T06:44:45;7.00;;;3.35;;
47760;SDS011;33524;55.434;38.520;2023-03-04T06:47:17;5.05;;;2.92;;
47760;SDS011;33524;55.434;38.520;2023-03-04T06:49:47;6.62;;;3.45;;
47760;SDS011;33524;55.434;38.520;2023-03-04T06:52:16;3.72;;;3.15;;
47760;SDS011;33524;55.434;38.520;2023-03-04T06:54:46;5.65;;;3.40;;
47760;SDS011;33524;55.434;38.520;2023-03-04T06:57:17;4.35;;;2.58;;
47760;SDS011;33524;55.434;38.520;2023-03-04T06:59:48;3.28;;;2.58;;
47760;SDS011;33524;55.434;38.520;2023-03-04T07:02:17;8.13;;;3.05;;
47760;SDS011;33524;55.434;38.520;2023-03-04T07:04:47;3.78;;;2.60;;
47760;SDS011;33524;55.434;38.520;2023-03-04T07:07:17;2.12;;;1.37;;
47760;SDS011;33524;55.434;38.520;2023-03-04T07:09:46;0.90;;;0.90;;
47760;SDS011;33524;55.434;38.520;2023-03-04T07:12:15;2.75;;;1.75;;
47760;SDS011;33524;55.434;38.520;2023-03-04T07:14:45;2.78;;;1.62;;
47760;SDS011;33524;55.434;38.520;2023-03-04T07:17:15;3.53;;;1.70;;
47760;SDS011;33524;55.434;38.520;2023-03-04T07:19:45;4.35;;;1.42;;
47760;SDS011;33524;55.434;38.520;2023-03-04T07:22:16;1.10;;;1.00;;
47760;SDS011;33524;55.434;38.520;2023-03-04T07:24:49;3.83;;;1.85;;
47760;SDS011;33524;55.434;38.520;2023-03-04T07:27:20;2.87;;;1.95;;
47760;SDS011;33524;55.434;38.520;2023-03-04T07:29:51;1.65;;;1.35;;
47760;SDS011;33524;55.434;38.520;2023-03-04T07:32:20;1.83;;;1.45;;
47760;SDS011;33524;55.434;38.520;2023-03-04T07:34:50;4.50;;;1.70;;
47760;SDS011;33524;55.434;38.520;2023-03-04T07:37:20;3.90;;;1.98;;
47760;SDS011;33524;55.434;38.520;2023-03-04T07:39:49;2.17;;;1.58;;
47760;SDS011;33524;55.434;38.520;2023-03-04T07:42:19;4.70;;;3.00;;
47760;SDS011;33524;55.434;38.520;2023-03-04T07:44:51;4.75;;;1.90;;
47760;SDS011;33524;55.434;38.520;2023-03-04T07:49:52;2.35;;;1.50;;
47760;SDS011;33524;55.434;38.520;2023-03-04T07:52:25;2.22;;;1.77;;
47760;SDS011;33524;55.434;38.520;2023-03-04T07:54:55;1.65;;;1.45;;
47760;SDS011;33524;55.434;38.520;2023-03-04T07:57:25;3.65;;;1.80;;
47760;SDS011;33524;55.434;38.520;2023-03-04T07:59:55;1.23;;;1.12;;
47760;SDS011;33524;55.434;38.520;2023-03-04T08:02:28;4.00;;;1.98;;
47760;SDS011;33524;55.434;38.520;2023-03-04T08:04:59;1.60;;;1.33;;
47760;SDS011;33524;55.434;38.520;2023-03-04T08:07:29;2.25;;;1.77;;
47760;SDS011;33524;55.434;38.520;2023-03-04T08:10:07;5.55;;;2.10;;
47760;SDS011;33524;55.434;38.520;2023-03-04T08:12:37;2.37;;;1.95;;
47760;SDS011;33524;55.434;38.520;2023-03-04T08:15:08;4.30;;;2.15;;
47760;SDS011;33524;55.434;38.520;2023-03-04T08:17:45;3.60;;;2.03;;
47760;SDS011;33524;55.434;38.520;2023-03-04T08:20:15;5.80;;;2.40;;
47760;SDS011;33524;55.434;38.520;2023-03-04T08:22:45;3.33;;;1.80;;
47760;SDS011;33524;55.434;38.520;2023-03-04T08:25:15;4.72;;;1.40;;
47760;SDS011;33524;55.434;38.520;2023-03-04T08:27:45;2.42;;;1.80;;
47760;SDS011;33524;55.434;38.520;2023-03-04T08:30:16;0.68;;;0.68;;
47760;SDS011;33524;55.434;38.520;2023-03-04T08:32:46;3.35;;;2.62;;
47760;SDS011;33524;55.434;38.520;2023-03-04T08:35:16;3.62;;;1.83;;
47760;SDS011;33524;55.434;38.520;2023-03-04T08:37:47;5.22;;;2.87;;
47760;SDS011;33524;55.434;38.520;2023-03-04T08:40:18;4.43;;;2.00;;
47760;SDS011;33524;55.434;38.520;2023-03-04T08:42:47;4.00;;;2.10;;
47760;SDS011;33524;55.434;38.520;2023-03-04T08:45:16;4.97;;;2.65;;
47760;SDS011;33524;55.434;38.520;2023-03-04T08:47:46;4.20;;;2.50;;
47760;SDS011;33524;55.434;38.520;2023-03-04T08:50:16;0.62;;;0.62;;
47760;SDS011;33524;55.434;38.520;2023-03-04T08:52:50;4.03;;;2.22;;
47760;SDS011;33524;55.434;38.520;2023-03-04T08:55:20;3.53;;;1.65;;
47760;SDS011;33524;55.434;38.520;2023-03-04T08:57:50;7.93;;;2.50;;
47760;SDS011;33524;55.434;38.520;2023-03-04T09:00:19;5.70;;;2.53;;
47760;SDS011;33524;55.434;38.520;2023-03-04T09:02:51;4.45;;;2.30;;
47760;SDS011;33524;55.434;38.520;2023-03-04T09:05:23;3.92;;;1.58;;
47760;SDS011;33524;55.434;38.520;2023-03-04T09:07:58;4.20;;;2.03;;
47760;SDS011;33524;55.434;38.520;2023-03-04T09:10:29;4.12;;;2.47;;
47760;SDS011;33524;55.434;38.520;2023-03-04T09:12:59;5.05;;;2.05;;
47760;SDS011;33524;55.434;38.520;2023-03-04T09:15:29;4.37;;;2.12;;
47760;SDS011;33524;55.434;38.520;2023-03-04T09:18:00;5.50;;;2.75;;
47760;SDS011;33524;55.434;38.520;2023-03-04T09:20:30;4.70;;;2.62;;
47760;SDS011;33524;55.434;38.520;2023-03-04T09:23:00;5.05;;;1.85;;
47760;SDS011;33524;55.434;38.520;2023-03-04T09:25:31;6.18;;;1.90;;
47760;SDS011;33524;55.434;38.520;2023-03-04T09:28:02;4.20;;;1.73;;
47760;SDS011;33524;55.434;38.520;2023-03-04T09:30:35;2.80;;;1.52;;
47760;SDS011;33524;55.434;38.520;2023-03-04T09:33:05;1.90;;;1.60;;
47760;SDS011;33524;55.434;38.520;2023-03-04T09:35:35;1.85;;;1.52;;
47760;SDS011;33524;55.434;38.520;2023-03-04T09:38:05;3.90;;;2.40;;
47760;SDS011;33524;55.434;38.520;2023-03-04T09:43:11;5.00;;;1.85;;
47760;SDS011;33524;55.434;38.520;2023-03-04T09:45:50;3.72;;;1.62;;
47760;SDS011;33524;55.434;38.520;2023-03-04T09:48:24;2.55;;;1.75;;
47760;SDS011;33524;55.434;38.520;2023-03-04T09:56:40;1.15;;;0.93;;
47760;SDS011;33524;55.434;38.520;2023-03-04T09:59:14;3.53;;;2.25;;
47760;SDS011;33524;55.434;38.520;2023-03-04T10:01:53;2.50;;;1.50;;
47760;SDS011;33524;55.434;38.520;2023-03-04T10:07:04;2.58;;;1.25;;
47760;SDS011;33524;55.434;38.520;2023-03-04T10:09:45;3.60;;;1.73;;
47760;SDS011;33524;55.434;38.520;2023-03-04T10:12:20;3.50;;;2.50;;
47760;SDS011;33524;55.434;38.520;2023-03-04T10:22:42;2.33;;;1.90;;
47760;SDS011;33524;55.434;38.520;2023-03-04T10:30:29;1.48;;;0.88;;
47760;SDS011;33524;55.434;38.520;2023-03-04T10:33:01;4.82;;;1.70;;
47760;SDS011;33524;55.434;38.520;2023-03-04T10:35:33;2.25;;;1.73;;
47760;SDS011;33524;55.434;38.520;2023-03-04T10:38:05;2.35;;;1.48;;
47760;SDS011;33524;55.434;38.520;2023-03-04T10:40:39;3.90;;;1.95;;
47760;SDS011;33524;55.434;38.520;2023-03-04T10:43:15;2.05;;;1.70;;
47760;SDS011;33524;55.434;38.520;2023-03-04T10:45:47;2.42;;;1.85;;
47760;SDS011;33524;55.434;38.520;2023-03-04T10:48:24;1.67;;;1.33;;
47760;SDS011;33524;55.434;38.520;2023-03-04T10:53:41;1.08;;;0.98;;
47760;SDS011;33524;55.434;38.520;2023-03-04T10:56:39;2.22;;;1.60;;
47760;SDS011;33524;55.434;38.520;2023-03-04T11:02:00;3.50;;;1.70;;
47760;SDS011;33524;55.434;38.520;2023-03-04T11:04:53;0.95;;;0.90;;
47760;SDS011;33524;55.434;38.520;2023-03-04T11:07:48;1.52;;;0.90;;
47760;SDS011;33524;55.434;38.520;2023-03-04T11:10:28;1.10;;;0.80;;
47760;SDS011;33524;55.434;38.520;2023-03-04T11:15:56;0.73;;;0.70;;
47760;SDS011;33524;55.434;38.520;2023-03-04T11:18:41;2.87;;;1.50;;
47760;SDS011;33524;55.434;38.520;2023-03-04T11:21:18;1.35;;;1.00;;
47760;SDS011;33524;55.434;38.520;2023-03-04T11:23:52;1.95;;;1.20;;
47760;SDS011;33524;55.434;38.520;2023-03-04T11:26:34;1.30;;;1.20;;
47760;SDS011;33524;55.434;38.520;2023-03-04T11:29:19;2.67;;;1.67;;
47760;SDS011;33524;55.434;38.520;2023-03-04T11:44:57;1.73;;;1.50;;
47760;SDS011;33524;55.434;38.520;2023-03-04T11:47:32;3.42;;;1.90;;
47760;SDS011;33524;55.434;38.520;2023-03-04T11:50:09;2.25;;;1.70;;
47760;SDS011;33524;55.434;38.520;2023-03-04T11:55:30;2.47;;;1.80;;
47760;SDS011;33524;55.434;38.520;2023-03-04T12:05:18;3.90;;;1.90;;
47760;SDS011;33524;55.434;38.520;2023-03-04T12:10:29;1.08;;;0.98;;
47760;SDS011;33524;55.434;38.520;2023-03-04T12:27:16;2.12;;;1.30;;
47760;SDS011;33524;55.434;38.520;2023-03-04T12:29:55;2.92;;;1.37;;
47760;SDS011;33524;55.434;38.520;2023-03-04T12:46:26;1.55;;;1.15;;
47760;SDS011;33524;55.434;38.520;2023-03-04T12:49:01;1.30;;;1.20;;
47760;SDS011;33524;55.434;38.520;2023-03-04T12:51:43;3.42;;;1.33;;
47760;SDS011;33524;55.434;38.520;2023-03-04T13:00:07;4.10;;;1.52;;
47760;SDS011;33524;55.434;38.520;2023-03-04T13:02:36;1.70;;;1.45;;
47760;SDS011;33524;55.434;38.520;2023-03-04T13:05:35;4.18;;;1.85;;
47760;SDS011;33524;55.434;38.520;2023-03-04T13:09:33;2.05;;;1.25;;
47760;SDS011;33524;55.434;38.520;2023-03-04T13:17:05;1.92;;;1.15;;
47760;SDS011;33524;55.434;38.520;2023-03-04T13:19:57;3.45;;;2.00;;
47760;SDS011;33524;55.434;38.520;2023-03-04T13:25:28;4.12;;;2.72;;
47760;SDS011;33524;55.434;38.520;2023-03-04T13:28:05;1.85;;;1.30;;
47760;SDS011;33524;55.434;38.520;2023-03-04T13:33:46;4.80;;;2.17;;
47760;SDS011;33524;55.434;38.520;2023-03-04T13:39:26;5.55;;;2.08;;
47760;SDS011;33524;55.434;38.520;2023-03-04T13:41:56;2.90;;;1.80;;
47760;SDS011;33524;55.434;38.520;2023-03-04T13:44:31;4.43;;;2.47;;
47760;SDS011;33524;55.434;38.520;2023-03-04T13:47:11;4.03;;;2.37;;
47760;SDS011;33524;55.434;38.520;2023-03-04T13:49:45;3.72;;;2.12;;
47760;SDS011;33524;55.434;38.520;2023-03-04T13:52:46;3.05;;;2.17;;
47760;SDS011;33524;55.434;38.520;2023-03-04T13:55:39;7.78;;;3.95;;
47760;SDS011;33524;55.434;38.520;2023-03-04T13:58:00;3.75;;;2.85;;
47760;SDS011;33524;55.434;38.520;2023-03-04T14:00:45;2.42;;;1.73;;
47760;SDS011;33524;55.434;38.520;2023-03-04T14:03:19;4.40;;;2.62;;
47760;SDS011;33524;55.434;38.520;2023-03-04T14:06:24;4.40;;;2.75;;
47760;SDS011;33524;55.434;38.520;2023-03-04T14:08:49;3.62;;;2.60;;
47760;SDS011;33524;55.434;38.520;2023-03-04T14:11:27;4.87;;;2.60;;
47760;SDS011;33524;55.434;38.520;2023-03-04T14:14:04;2.35;;;1.65;;
47760;SDS011;33524;55.434;38.520;2023-03-04T14:16:37;4.63;;;3.10;;
47760;SDS011;33524;55.434;38.520;2023-03-04T14:19:14;6.15;;;2.62;;
47760;SDS011;33524;55.434;38.520;2023-03-04T14:21:47;4.45;;;2.80;;
47760;SDS011;33524;55.434;38.520;2023-03-04T14:24:18;3.50;;;2.12;;
47760;SDS011;33524;55.434;38.520;2023-03-04T14:26:57;2.50;;;1.87;;
47760;SDS011;33524;55.434;38.520;2023-03-04T14:29:39;6.28;;;2.85;;
47760;SDS011;33524;55.434;38.520;2023-03-04T14:32:09;5.78;;;2.78;;
47760;SDS011;33524;55.434;38.520;2023-03-04T14:34:42;4.90;;;2.28;;
47760;SDS011;33524;55.434;38.520;2023-03-04T14:37:20;4.55;;;2.60;;
47760;SDS011;33524;55.434;38.520;2023-03-04T14:39:55;5.72;;;3.62;;
47760;SDS011;33524;55.434;38.520;2023-03-04T14:42:29;4.28;;;2.72;;
47760;SDS011;33524;55.434;38.520;2023-03-04T14:45:09;5.47;;;3.15;;
47760;SDS011;33524;55.434;38.520;2023-03-04T14:47:45;5.90;;;3.83;;
47760;SDS011;33524;55.434;38.520;2023-03-04T14:50:18;4.22;;;2.92;;
47760;SDS011;33524;55.434;38.520;2023-03-04T14:52:50;3.67;;;1.60;;
47760;SDS011;33524;55.434;38.520;2023-03-04T14:55:53;6.30;;;4.05;;
47760;SDS011;33524;55.434;38.520;2023-03-04T14:58:27;6.05;;;3.25;;
47760;SDS011;33524;55.434;38.520;2023-03-04T15:01:06;7.12;;;4.12;;
47760;SDS011;33524;55.434;38.520;2023-03-04T15:04:17;5.12;;;3.20;;
47760;SDS011;33524;55.434;38.520;2023-03-04T15:06:36;5.70;;;3.12;;
47760;SDS011;33524;55.434;38.520;2023-03-04T15:09:16;4.50;;;3.08;;
47760;SDS011;33524;55.434;38.520;2023-03-04T15:11:50;5.35;;;3.03;;
47760;SDS011;33524;55.434;38.520;2023-03-04T15:15:04;5.18;;;3.20;;
47760;SDS011;33524;55.434;38.520;2023-03-04T15:25:28;5.62;;;3.33;;
47760;SDS011;33524;55.434;38.520;2023-03-04T15:27:58;5.22;;;3.25;;
47760;SDS011;33524;55.434;38.520;2023-03-04T15:30:30;7.40;;;4.32;;
47760;SDS011;33524;55.434;38.520;2023-03-04T15:33:04;6.57;;;4.10;;
47760;SDS011;33524;55.434;38.520;2023-03-04T15:35:37;4.10;;;2.47;;
47760;SDS011;33524;55.434;38.520;2023-03-04T15:38:10;3.78;;;2.80;;
47760;SDS011;33524;55.434;38.520;2023-03-04T15:40:41;4.70;;;3.17;;
47760;SDS011;33524;55.434;38.520;2023-03-04T15:43:13;8.48;;;4.00;;
47760;SDS011;33524;55.434;38.520;2023-03-04T15:45:45;7.75;;;3.97;;
47760;SDS011;33524;55.434;38.520;2023-03-04T15:48:16;4.20;;;3.03;;
47760;SDS011;33524;55.434;38.520;2023-03-04T15:50:47;7.00;;;3.60;;
47760;SDS011;33524;55.434;38.520;2023-03-04T15:53:22;8.05;;;4.18;;
47760;SDS011;33524;55.434;38.520;2023-03-04T15:56:00;6.32;;;3.62;;
47760;SDS011;33524;55.434;38.520;2023-03-04T15:58:32;7.97;;;4.27;;
47760;SDS011;33524;55.434;38.520;2023-03-04T16:01:01;7.15;;;4.72;;
47760;SDS011;33524;55.434;38.520;2023-03-04T16:03:33;6.57;;;3.45;;
47760;SDS011;33524;55.434;38.520;2023-03-04T16:06:04;6.57;;;4.03;;
47760;SDS011;33524;55.434;38.520;2023-03-04T16:08:47;5.60;;;3.28;;
47760;SDS011;33524;55.434;38.520;2023-03-04T16:11:20;6.25;;;3.83;;
47760;SDS011;33524;55.434;38.520;2023-03-04T16:13:54;6.03;;;3.20;;
47760;SDS011;33524;55.434;38.520;2023-03-04T16:16:24;6.03;;;2.78;;
47760;SDS011;33524;55.434;38.520;2023-03-04T16:18:55;7.62;;;3.75;;
47760;SDS011;33524;55.434;38.520;2023-03-04T16:21:23;4.80;;;3.35;;
47760;SDS011;33524;55.434;38.520;2023-03-04T16:23:54;6.55;;;4.15;;
47760;SDS011;33524;55.434;38.520;2023-03-04T16:26:24;5.78;;;3.83;;
47760;SDS011;33524;55.434;38.520;2023-03-04T16:28:55;4.68;;;3.05;;
47760;SDS011;33524;55.434;38.520;2023-03-04T16:31:25;6.12;;;4.10;;
47760;SDS011;33524;55.434;38.520;2023-03-04T16:33:54;4.45;;;3.25;;
47760;SDS011;33524;55.434;38.520;2023-03-04T16:36:25;4.90;;;3.10;;
47760;SDS011;33524;55.434;38.520;2023-03-04T16:38:56;5.10;;;2.73;;
47760;SDS011;33524;55.434;38.520;2023-03-04T16:41:32;6.53;;;4.62;;
47760;SDS011;33524;55.434;38.520;2023-03-04T16:44:04;5.30;;;4.05;;
47760;SDS011;33524;55.434;38.520;2023-03-04T16:46:37;7.90;;;4.43;;
47760;SDS011;33524;55.434;38.520;2023-03-04T16:49:07;5.10;;;3.50;;
47760;SDS011;33524;55.434;38.520;2023-03-04T16:51:40;6.47;;;4.07;;
47760;SDS011;33524;55.434;38.520;2023-03-04T16:54:14;7.45;;;4.25;;
47760;SDS011;33524;55.434;38.520;2023-03-04T16:56:50;7.40;;;4.90;;
47760;SDS011;33524;55.434;38.520;2023-03-04T16:59:23;7.22;;;3.55;;
47760;SDS011;33524;55.434;38.520;2023-03-04T17:01:54;6.70;;;4.10;;
47760;SDS011;33524;55.434;38.520;2023-03-04T17:04:25;5.78;;;2.87;;
47760;SDS011;33524;55.434;38.520;2023-03-04T17:06:58;5.35;;;3.62;;
47760;SDS011;33524;55.434;38.520;2023-03-04T17:09:28;5.75;;;3.70;;